createdAt,value
2018-10-02T00:03:58.688Z,53.63
2018-10-02T00:09:02.140Z,52.97
2018-10-02T00:14:10.937Z,53.70
2018-10-02T00:19:14.393Z,54.11
2018-10-02T00:24:17.821Z,54.58
2018-10-02T00:29:21.241Z,54.77
2018-10-02T00:34:24.735Z,55.08
2018-10-02T00:39:28.191Z,55.09
2018-10-02T00:44:31.634Z,55.63
2018-10-02T00:49:35.057Z,56.35
2018-10-02T00:54:38.541Z,56.55
2018-10-02T00:59:41.993Z,56.66
2018-10-02T01:04:45.466Z,57.16
2018-10-02T01:09:48.920Z,56.79
2018-10-02T01:14:52.364Z,56.68
2018-10-02T01:19:55.828Z,57.51
2018-10-02T01:24:59.278Z,57.42
2018-10-02T01:30:03.057Z,57.63
2018-10-02T01:35:06.476Z,58.20
2018-10-02T01:40:09.931Z,57.65
2018-10-02T01:45:13.400Z,58.46
2018-10-02T01:50:16.900Z,58.63
2018-10-02T01:55:20.394Z,58.96
2018-10-02T02:00:23.850Z,58.80
2018-10-02T02:05:27.284Z,58.62
2018-10-02T02:10:30.734Z,58.83
2018-10-02T02:15:34.168Z,58.75
2018-10-02T02:20:37.668Z,58.82
2018-10-02T02:25:41.096Z,58.82
2018-10-02T02:30:44.534Z,58.93
2018-10-02T02:35:47.988Z,58.73
2018-10-02T02:40:51.437Z,58.90
2018-10-02T02:45:54.860Z,59.08
2018-10-02T02:51:03.648Z,59.31
2018-10-02T02:56:07.208Z,59.39
2018-10-02T03:01:10.710Z,59.14
2018-10-02T03:06:14.166Z,59.12
2018-10-02T03:11:17.628Z,58.79
2018-10-02T03:16:21.212Z,59.49
2018-10-02T03:21:24.700Z,59.41
2018-10-02T03:26:28.125Z,59.60
2018-10-02T03:31:31.611Z,59.31
2018-10-02T03:36:35.056Z,59.74
2018-10-02T03:41:38.592Z,59.89
2018-10-02T03:46:42.089Z,59.72
2018-10-02T03:51:45.570Z,59.73
2018-10-02T03:56:49.040Z,59.70
2018-10-02T04:01:52.544Z,59.03
2018-10-02T04:06:56.005Z,58.95
2018-10-02T04:11:59.460Z,59.20
2018-10-02T04:17:03.056Z,58.61
2018-10-02T04:22:06.504Z,58.72
2018-10-02T04:27:09.973Z,59.09
2018-10-02T04:32:13.441Z,59.04
2018-10-02T04:37:16.877Z,58.60
2018-10-02T04:42:20.325Z,58.41
2018-10-02T04:47:23.777Z,58.72
2018-10-02T04:52:27.213Z,58.43
2018-10-02T04:57:30.641Z,58.86
2018-10-02T05:02:34.080Z,58.77
2018-10-02T05:07:37.528Z,58.37
2018-10-02T05:12:40.973Z,58.79
2018-10-02T05:17:44.449Z,58.74
2018-10-02T05:22:47.905Z,58.55
2018-10-02T05:27:51.461Z,58.57
2018-10-02T05:32:54.886Z,58.48
2018-10-02T05:37:58.317Z,58.69
2018-10-02T05:43:01.794Z,58.95
2018-10-02T05:48:05.273Z,58.73
2018-10-02T05:53:08.759Z,58.68
2018-10-02T05:58:12.230Z,58.63
2018-10-02T06:03:15.669Z,58.66
2018-10-02T06:08:19.130Z,58.81
2018-10-02T06:13:22.579Z,58.96
2018-10-02T06:18:26.039Z,58.81
2018-10-02T06:23:29.471Z,58.97
2018-10-02T06:28:32.929Z,58.37
2018-10-02T06:33:36.373Z,58.89
2018-10-02T06:38:39.969Z,58.40
2018-10-02T06:43:43.399Z,58.76
2018-10-02T06:48:46.818Z,58.30
2018-10-02T06:53:50.276Z,56.85
2018-10-02T06:58:53.938Z,60.24
2018-10-02T07:03:57.348Z,62.10
2018-10-02T07:09:00.844Z,63.77
2018-10-02T07:14:04.260Z,64.01
2018-10-02T07:19:08.089Z,62.38
2018-10-02T07:24:11.540Z,56.16
2018-10-02T07:29:14.972Z,54.48
2018-10-02T07:34:18.414Z,53.78
2018-10-02T07:39:21.879Z,53.52
2018-10-02T07:44:25.404Z,53.97
2018-10-02T07:49:28.859Z,53.47
2018-10-02T07:54:32.584Z,53.99
2018-10-02T07:59:36.113Z,53.67
2018-10-02T08:04:39.542Z,53.71
2018-10-02T08:09:43.022Z,54.12
2018-10-02T08:14:46.556Z,53.62
2018-10-02T08:19:50.016Z,54.15
2018-10-02T08:24:53.511Z,54.00
2018-10-02T08:29:57.136Z,54.03
2018-10-02T08:35:00.463Z,54.09
2018-10-02T08:40:03.918Z,55.40
2018-10-02T08:45:07.581Z,56.20
2018-10-02T08:50:10.997Z,56.69
2018-10-02T08:55:14.467Z,55.65
2018-10-02T09:00:17.983Z,54.86
2018-10-02T09:05:21.496Z,54.29
2018-10-02T09:10:24.936Z,53.37
2018-10-02T09:15:28.388Z,53.20
2018-10-02T09:20:31.990Z,53.44
2018-10-02T09:25:35.417Z,53.43
2018-10-02T09:30:44.076Z,53.20
2018-10-02T09:35:52.682Z,53.38
2018-10-02T09:41:01.394Z,52.83
2018-10-02T09:46:04.926Z,52.91
2018-10-02T09:51:08.423Z,53.34
2018-10-02T09:56:11.828Z,52.85
2018-10-02T10:01:20.593Z,53.22
2018-10-02T10:06:24.017Z,53.31
2018-10-02T10:11:27.430Z,53.78
2018-10-02T10:16:31.029Z,54.07
2018-10-02T10:21:34.436Z,54.01
2018-10-02T10:26:37.952Z,53.90
2018-10-02T10:31:41.351Z,53.83
2018-10-02T10:36:44.789Z,53.85
2018-10-02T10:41:48.239Z,54.44
2018-10-02T10:46:51.685Z,54.65
2018-10-02T10:51:55.193Z,54.58
2018-10-02T10:56:58.614Z,53.88
2018-10-02T11:02:02.043Z,54.01
2018-10-02T11:07:05.444Z,54.26
2018-10-02T11:12:08.936Z,53.63
2018-10-02T11:17:12.381Z,54.29
2018-10-02T11:22:15.793Z,54.00
2018-10-02T11:27:19.291Z,54.12
2018-10-02T11:32:22.722Z,54.45
2018-10-02T11:37:26.167Z,55.10
2018-10-02T11:42:29.572Z,54.41
2018-10-02T11:47:33.077Z,54.42
2018-10-02T11:52:36.484Z,54.24
2018-10-02T11:57:40.048Z,54.65
2018-10-02T12:02:43.540Z,54.85
2018-10-02T12:07:46.905Z,55.33
2018-10-02T12:12:50.390Z,55.10
2018-10-02T12:17:53.802Z,57.42
2018-10-02T12:22:57.259Z,56.52
2018-10-02T12:28:00.673Z,56.41
2018-10-02T12:33:10.789Z,56.45
2018-10-02T12:38:14.219Z,55.80
2018-10-02T12:43:17.663Z,56.23
2018-10-02T12:48:21.101Z,56.13
2018-10-02T12:53:24.600Z,55.66
2018-10-02T12:58:27.978Z,51.86
2018-10-02T13:03:31.393Z,56.79
2018-10-02T13:08:34.857Z,55.23
2018-10-02T13:13:38.385Z,54.99
2018-10-02T13:18:41.809Z,55.21
2018-10-02T13:23:45.237Z,57.08
2018-10-02T13:28:48.656Z,57.58
2018-10-02T13:33:52.118Z,57.34
2018-10-02T13:38:55.548Z,56.73
2018-10-02T13:43:59.219Z,56.33
2018-10-02T13:49:02.655Z,56.48
2018-10-02T13:54:06.093Z,56.06
2018-10-02T13:59:09.580Z,56.14
2018-10-02T14:04:13.056Z,56.12
2018-10-02T14:09:16.519Z,56.07
2018-10-02T14:14:20.129Z,56.04
2018-10-02T14:19:23.633Z,56.27
2018-10-02T14:35:32.681Z,56.17
2018-10-02T14:40:36.144Z,56.48
2018-10-02T14:45:39.570Z,56.64
2018-10-02T14:50:43.588Z,56.75
2018-10-02T14:55:47.012Z,56.47
2018-10-02T15:00:50.596Z,56.49
2018-10-02T15:05:54.230Z,55.75
2018-10-02T15:10:57.791Z,55.65
2018-10-02T15:16:01.423Z,55.38
2018-10-02T15:21:04.859Z,55.30
2018-10-02T15:26:08.313Z,55.03
2018-10-02T15:31:11.931Z,54.89
2018-10-02T15:36:15.414Z,55.01
2018-10-02T15:41:18.860Z,54.47
2018-10-02T15:46:22.395Z,54.72
2018-10-02T15:51:25.832Z,54.46
2018-10-02T15:56:29.879Z,54.27
2018-10-02T16:01:33.361Z,54.16
2018-10-02T16:06:36.820Z,54.52
2018-10-02T16:11:40.859Z,54.97
2018-10-02T16:16:44.397Z,54.58
2018-10-02T16:21:47.997Z,54.50
2018-10-02T16:26:51.570Z,54.10
2018-10-02T16:31:55.077Z,53.64
2018-10-02T16:36:58.520Z,54.31
2018-10-02T16:42:02.130Z,54.03
2018-10-02T16:47:05.701Z,54.07
2018-10-02T16:52:09.248Z,54.13
2018-10-02T16:57:12.725Z,54.08
2018-10-02T17:02:16.216Z,54.19
2018-10-02T17:07:19.763Z,53.92
2018-10-02T17:12:24.214Z,54.07
2018-10-02T17:17:29.401Z,53.49
2018-10-02T17:22:33.148Z,53.44
2018-10-02T17:27:37.259Z,53.67
2018-10-02T17:32:41.637Z,53.13
2018-10-02T17:37:45.285Z,52.74
2018-10-02T17:42:48.912Z,52.53
2018-10-02T17:47:52.349Z,52.03
2018-10-02T17:52:55.840Z,51.94
2018-10-02T17:57:59.449Z,51.49
2018-10-02T18:03:03.565Z,51.59
2018-10-02T18:08:07.063Z,51.77
2018-10-02T18:13:10.617Z,51.56
2018-10-02T18:18:14.492Z,51.51
2018-10-02T18:23:19.176Z,51.64
2018-10-02T18:28:22.728Z,51.22
2018-10-02T18:33:26.967Z,51.08
2018-10-02T18:38:30.731Z,51.01
2018-10-02T18:43:34.230Z,51.16
2018-10-02T18:48:37.710Z,51.54
2018-10-02T18:53:41.267Z,51.72
2018-10-02T18:58:45.910Z,51.53
2018-10-02T19:03:49.474Z,51.64
2018-10-02T19:08:58.400Z,51.90
2018-10-02T19:14:01.904Z,51.93
2018-10-02T19:19:05.673Z,51.75
2018-10-02T19:24:09.145Z,52.04
2018-10-02T19:29:12.624Z,51.93
2018-10-02T19:34:16.644Z,52.33
2018-10-02T19:39:25.744Z,52.01
2018-10-02T19:44:29.660Z,52.38
2018-10-02T19:49:34.299Z,52.09
2018-10-02T19:54:37.852Z,52.23
2018-10-02T19:59:41.353Z,52.14
2018-10-02T20:04:44.963Z,52.23
2018-10-02T20:09:48.508Z,52.47
2018-10-02T20:14:52.264Z,52.12
2018-10-02T20:19:55.900Z,52.53
2018-10-02T20:24:59.596Z,52.09
2018-10-02T20:30:03.428Z,52.33
2018-10-02T20:35:07.339Z,52.20
2018-10-02T20:40:10.935Z,52.18
2018-10-02T20:45:14.525Z,52.36
2018-10-02T20:50:18.094Z,52.69
2018-10-02T20:55:21.891Z,52.13
2018-10-02T21:00:25.513Z,52.47
2018-10-02T21:05:29.172Z,52.47
2018-10-02T21:10:32.736Z,52.40
2018-10-02T21:15:36.413Z,52.34
2018-10-02T21:20:39.790Z,52.73
2018-10-02T21:25:43.276Z,52.80
2018-10-02T21:30:47.001Z,52.61
2018-10-02T21:35:52.282Z,52.90
2018-10-02T21:40:55.833Z,52.48
2018-10-02T21:45:59.296Z,53.08
2018-10-02T21:51:02.823Z,52.75
2018-10-02T21:56:06.429Z,53.14
2018-10-02T22:01:10.018Z,52.77
2018-10-02T22:06:13.621Z,52.98
2018-10-02T22:11:17.133Z,53.12
2018-10-02T22:16:20.654Z,53.22
2018-10-02T22:21:24.136Z,53.28
2018-10-02T22:26:27.705Z,53.34
2018-10-02T22:31:31.355Z,52.86
2018-10-02T22:36:34.917Z,53.42
2018-10-02T22:41:38.390Z,53.16
2018-10-02T22:46:42.152Z,53.29
2018-10-02T22:51:45.784Z,53.59
2018-10-02T22:56:49.297Z,53.21
2018-10-02T23:01:52.773Z,53.10
2018-10-02T23:06:56.275Z,53.65
2018-10-02T23:11:59.750Z,53.23
2018-10-02T23:17:03.217Z,53.72
2018-10-02T23:22:06.703Z,53.34
2018-10-02T23:27:10.164Z,53.65
2018-10-02T23:32:13.651Z,53.56
2018-10-02T23:37:17.136Z,53.71
2018-10-02T23:42:20.617Z,53.73
2018-10-02T23:47:24.116Z,53.35
2018-10-02T23:52:27.683Z,53.84
2018-10-02T23:57:31.156Z,53.89
